sensor_id;sensor_type;location;lat;lon;timestamp;temperature;humidity
4505;DHT22;2265;48.794;9.520;2022-10-16T00:01:43;15.90;98.00
4505;DHT22;2265;48.794;9.520;2022-10-16T00:04:10;15.90;98.00
4505;DHT22;2265;48.794;9.520;2022-10-16T00:06:37;15.90;98.00
4505;DHT22;2265;48.794;9.520;2022-10-16T00:09:06;15.90;98.00
4505;DHT22;2265;48.794;9.520;2022-10-16T00:11:35;15.90;98.00
4505;DHT22;2265;48.794;9.520;2022-10-16T00:14:05;15.90;98.00
4505;DHT22;2265;48.794;9.520;2022-10-16T00:16:34;15.90;98.00
4505;DHT22;2265;48.794;9.520;2022-10-16T00:19:02;16.00;98.00
4505;DHT22;2265;48.794;9.520;2022-10-16T00:21:30;16.00;98.00
4505;DHT22;2265;48.794;9.520;2022-10-16T00:23:59;15.90;98.00
4505;DHT22;2265;48.794;9.520;2022-10-16T00:26:28;15.80;98.00
4505;DHT22;2265;48.794;9.520;2022-10-16T00:28:56;15.70;98.00
4505;DHT22;2265;48.794;9.520;2022-10-16T00:31:24;15.60;98.00
4505;DHT22;2265;48.794;9.520;2022-10-16T00:33:52;15.60;98.00
4505;DHT22;2265;48.794;9.520;2022-10-16T00:36:21;15.60;98.00
4505;DHT22;2265;48.794;9.520;2022-10-16T00:38:50;15.60;98.00
4505;DHT22;2265;48.794;9.520;2022-10-16T00:41:19;15.60;98.00
4505;DHT22;2265;48.794;9.520;2022-10-16T00:43:48;15.50;98.00
4505;DHT22;2265;48.794;9.520;2022-10-16T00:46:18;15.60;98.00
4505;DHT22;2265;48.794;9.520;2022-10-16T00:48:49;15.60;98.00
4505;DHT22;2265;48.794;9.520;2022-10-16T00:51:23;15.50;98.00
4505;DHT22;2265;48.794;9.520;2022-10-16T00:53:51;15.40;98.00
4505;DHT22;2265;48.794;9.520;2022-10-16T00:56:20;15.40;98.00
4505;DHT22;2265;48.794;9.520;2022-10-16T00:58:47;15.30;98.00
4505;DHT22;2265;48.794;9.520;2022-10-16T01:01:14;15.30;98.00
4505;DHT22;2265;48.794;9.520;2022-10-16T01:03:41;15.30;98.00
4505;DHT22;2265;48.794;9.520;2022-10-16T01:06:23;15.30;98.00
4505;DHT22;2265;48.794;9.520;2022-10-16T01:09:01;15.30;98.00
4505;DHT22;2265;48.794;9.520;2022-10-16T01:11:33;15.30;98.00
4505;DHT22;2265;48.794;9.520;2022-10-16T01:14:08;15.30;98.00
4505;DHT22;2265;48.794;9.520;2022-10-16T01:16:41;15.20;98.00
4505;DHT22;2265;48.794;9.520;2022-10-16T01:19:16;15.20;98.00
4505;DHT22;2265;48.794;9.520;2022-10-16T01:21:48;15.20;98.00
4505;DHT22;2265;48.794;9.520;2022-10-16T01:24:25;15.30;98.00
4505;DHT22;2265;48.794;9.520;2022-10-16T01:27:09;15.20;98.00
4505;DHT22;2265;48.794;9.520;2022-10-16T01:29:42;15.20;98.00
4505;DHT22;2265;48.794;9.520;2022-10-16T01:32:16;15.30;98.00
4505;DHT22;2265;48.794;9.520;2022-10-16T01:34:48;15.20;98.00
4505;DHT22;2265;48.794;9.520;2022-10-16T01:37:22;15.20;98.00
4505;DHT22;2265;48.794;9.520;2022-10-16T01:39:50;15.20;98.00
4505;DHT22;2265;48.794;9.520;2022-10-16T01:42:24;15.10;98.00
4505;DHT22;2265;48.794;9.520;2022-10-16T01:44:53;15.10;98.00
4505;DHT22;2265;48.794;9.520;2022-10-16T01:47:25;15.10;98.00
4505;DHT22;2265;48.794;9.520;2022-10-16T01:49:53;15.10;98.00
4505;DHT22;2265;48.794;9.520;2022-10-16T01:52:23;15.10;98.00
4505;DHT22;2265;48.794;9.520;2022-10-16T01:54:55;15.10;98.00
4505;DHT22;2265;48.794;9.520;2022-10-16T01:57:24;15.30;98.00
4505;DHT22;2265;48.794;9.520;2022-10-16T01:59:56;15.40;98.00
4505;DHT22;2265;48.794;9.520;2022-10-16T02:02:27;15.40;98.00
4505;DHT22;2265;48.794;9.520;2022-10-16T02:05:00;15.30;98.00
4505;DHT22;2265;48.794;9.520;2022-10-16T02:07:28;15.30;98.00
4505;DHT22;2265;48.794;9.520;2022-10-16T02:09:55;15.30;98.00
4505;DHT22;2265;48.794;9.520;2022-10-16T02:12:28;15.40;98.00
4505;DHT22;2265;48.794;9.520;2022-10-16T02:14:56;15.30;98.00
4505;DHT22;2265;48.794;9.520;2022-10-16T02:17:24;15.30;98.00
4505;DHT22;2265;48.794;9.520;2022-10-16T02:19:53;15.20;98.00
4505;DHT22;2265;48.794;9.520;2022-10-16T02:22:24;15.20;98.00
4505;DHT22;2265;48.794;9.520;2022-10-16T02:24:57;15.20;98.00
4505;DHT22;2265;48.794;9.520;2022-10-16T02:27:33;15.10;98.00
4505;DHT22;2265;48.794;9.520;2022-10-16T02:30:14;15.10;98.00
4505;DHT22;2265;48.794;9.520;2022-10-16T02:32:47;15.20;98.00
4505;DHT22;2265;48.794;9.520;2022-10-16T02:35:17;15.20;98.00
4505;DHT22;2265;48.794;9.520;2022-10-16T02:37:46;15.10;98.00
4505;DHT22;2265;48.794;9.520;2022-10-16T02:40:13;15.10;98.00
4505;DHT22;2265;48.794;9.520;2022-10-16T02:42:43;15.10;98.00
4505;DHT22;2265;48.794;9.520;2022-10-16T02:45:11;15.10;98.00
4505;DHT22;2265;48.794;9.520;2022-10-16T02:47:38;15.10;98.00
4505;DHT22;2265;48.794;9.520;2022-10-16T02:50:06;15.10;98.00
4505;DHT22;2265;48.794;9.520;2022-10-16T02:52:35;15.10;98.00
4505;DHT22;2265;48.794;9.520;2022-10-16T02:55:04;15.20;98.00
4505;DHT22;2265;48.794;9.520;2022-10-16T02:57:33;15.40;98.00
4505;DHT22;2265;48.794;9.520;2022-10-16T03:00:04;15.50;98.00
4505;DHT22;2265;48.794;9.520;2022-10-16T03:02:31;15.50;98.00
4505;DHT22;2265;48.794;9.520;2022-10-16T03:04:58;15.60;98.00
4505;DHT22;2265;48.794;9.520;2022-10-16T03:07:25;15.50;98.00
4505;DHT22;2265;48.794;9.520;2022-10-16T03:09:52;15.50;98.00
4505;DHT22;2265;48.794;9.520;2022-10-16T03:12:20;15.50;98.00
4505;DHT22;2265;48.794;9.520;2022-10-16T03:14:47;15.40;98.00
4505;DHT22;2265;48.794;9.520;2022-10-16T03:17:16;15.30;98.00
4505;DHT22;2265;48.794;9.520;2022-10-16T03:19:43;15.20;98.00
4505;DHT22;2265;48.794;9.520;2022-10-16T03:22:10;15.20;98.00
4505;DHT22;2265;48.794;9.520;2022-10-16T03:24:37;15.10;98.00
4505;DHT22;2265;48.794;9.520;2022-10-16T03:27:04;15.10;98.00
4505;DHT22;2265;48.794;9.520;2022-10-16T03:29:32;15.10;98.00
4505;DHT22;2265;48.794;9.520;2022-10-16T03:31:59;15.20;98.00
4505;DHT22;2265;48.794;9.520;2022-10-16T03:34:29;15.20;98.00
4505;DHT22;2265;48.794;9.520;2022-10-16T03:36:56;15.10;98.00
4505;DHT22;2265;48.794;9.520;2022-10-16T03:39:24;15.00;98.00
4505;DHT22;2265;48.794;9.520;2022-10-16T03:41:51;15.00;98.00
4505;DHT22;2265;48.794;9.520;2022-10-16T03:44:18;15.00;98.00
4505;DHT22;2265;48.794;9.520;2022-10-16T03:46:45;15.00;98.00
4505;DHT22;2265;48.794;9.520;2022-10-16T03:49:12;15.00;98.00
4505;DHT22;2265;48.794;9.520;2022-10-16T03:51:40;14.90;98.00
4505;DHT22;2265;48.794;9.520;2022-10-16T03:54:09;14.90;98.00
4505;DHT22;2265;48.794;9.520;2022-10-16T03:56:36;14.90;98.00
4505;DHT22;2265;48.794;9.520;2022-10-16T03:59:03;14.90;98.00
4505;DHT22;2265;48.794;9.520;2022-10-16T04:01:30;14.90;98.00
4505;DHT22;2265;48.794;9.520;2022-10-16T04:03:57;14.90;98.00
4505;DHT22;2265;48.794;9.520;2022-10-16T04:06:24;14.80;98.00
4505;DHT22;2265;48.794;9.520;2022-10-16T04:08:52;14.80;98.00
4505;DHT22;2265;48.794;9.520;2022-10-16T04:11:20;14.70;98.00
4505;DHT22;2265;48.794;9.520;2022-10-16T04:13:47;14.70;98.00
4505;DHT22;2265;48.794;9.520;2022-10-16T04:16:14;14.70;98.00
4505;DHT22;2265;48.794;9.520;2022-10-16T04:18:41;14.70;98.00
4505;DHT22;2265;48.794;9.520;2022-10-16T04:21:08;14.70;98.00
4505;DHT22;2265;48.794;9.520;2022-10-16T04:23:36;14.70;98.00
4505;DHT22;2265;48.794;9.520;2022-10-16T04:26:04;14.70;98.00
4505;DHT22;2265;48.794;9.520;2022-10-16T04:28:31;14.70;98.00
4505;DHT22;2265;48.794;9.520;2022-10-16T04:30:59;14.80;98.00
4505;DHT22;2265;48.794;9.520;2022-10-16T04:33:26;14.70;98.00
4505;DHT22;2265;48.794;9.520;2022-10-16T04:35:59;14.60;98.00
4505;DHT22;2265;48.794;9.520;2022-10-16T04:38:27;14.60;98.00
4505;DHT22;2265;48.794;9.520;2022-10-16T04:40:54;14.50;98.00
4505;DHT22;2265;48.794;9.520;2022-10-16T04:43:23;14.50;98.00
4505;DHT22;2265;48.794;9.520;2022-10-16T04:45:50;14.50;98.00
4505;DHT22;2265;48.794;9.520;2022-10-16T04:48:17;14.50;98.00
4505;DHT22;2265;48.794;9.520;2022-10-16T04:50:44;14.50;98.00
4505;DHT22;2265;48.794;9.520;2022-10-16T04:53:12;14.40;98.00
4505;DHT22;2265;48.794;9.520;2022-10-16T04:55:39;14.50;98.00
4505;DHT22;2265;48.794;9.520;2022-10-16T04:58:07;14.50;98.00
4505;DHT22;2265;48.794;9.520;2022-10-16T05:00:36;14.50;98.00
4505;DHT22;2265;48.794;9.520;2022-10-16T05:03:04;14.60;98.00
4505;DHT22;2265;48.794;9.520;2022-10-16T05:05:33;14.60;98.00
4505;DHT22;2265;48.794;9.520;2022-10-16T05:08:00;14.50;98.00
4505;DHT22;2265;48.794;9.520;2022-10-16T05:10:27;14.50;98.00
4505;DHT22;2265;48.794;9.520;2022-10-16T05:12:54;14.50;98.00
4505;DHT22;2265;48.794;9.520;2022-10-16T05:15:21;14.50;98.00
4505;DHT22;2265;48.794;9.520;2022-10-16T05:17:53;14.50;98.00
4505;DHT22;2265;48.794;9.520;2022-10-16T05:20:20;14.40;98.00
4505;DHT22;2265;48.794;9.520;2022-10-16T05:22:48;14.40;98.00
4505;DHT22;2265;48.794;9.520;2022-10-16T05:25:15;14.40;98.00
4505;DHT22;2265;48.794;9.520;2022-10-16T05:27:42;14.50;98.00
4505;DHT22;2265;48.794;9.520;2022-10-16T05:30:10;14.60;98.00
4505;DHT22;2265;48.794;9.520;2022-10-16T05:32:37;14.60;98.00
4505;DHT22;2265;48.794;9.520;2022-10-16T05:35:06;14.60;98.00
4505;DHT22;2265;48.794;9.520;2022-10-16T05:37:33;14.60;98.00
4505;DHT22;2265;48.794;9.520;2022-10-16T05:40:00;14.50;98.00
4505;DHT22;2265;48.794;9.520;2022-10-16T05:42:28;14.50;98.00
4505;DHT22;2265;48.794;9.520;2022-10-16T05:44:55;14.50;98.00
4505;DHT22;2265;48.794;9.520;2022-10-16T05:47:22;14.60;98.00
4505;DHT22;2265;48.794;9.520;2022-10-16T05:49:49;14.60;98.00
4505;DHT22;2265;48.794;9.520;2022-10-16T05:52:18;14.50;98.00
4505;DHT22;2265;48.794;9.520;2022-10-16T05:54:45;14.50;98.00
4505;DHT22;2265;48.794;9.520;2022-10-16T05:57:12;14.50;98.00
4505;DHT22;2265;48.794;9.520;2022-10-16T05:59:39;14.50;98.00
4505;DHT22;2265;48.794;9.520;2022-10-16T06:02:07;14.50;98.00
4505;DHT22;2265;48.794;9.520;2022-10-16T06:04:35;14.50;98.00
4505;DHT22;2265;48.794;9.520;2022-10-16T06:07:03;14.40;98.00
4505;DHT22;2265;48.794;9.520;2022-10-16T06:09:31;14.40;98.00
4505;DHT22;2265;48.794;9.520;2022-10-16T06:11:59;14.40;98.00
4505;DHT22;2265;48.794;9.520;2022-10-16T06:14:26;14.30;98.00
4505;DHT22;2265;48.794;9.520;2022-10-16T06:16:53;14.40;98.00
4505;DHT22;2265;48.794;9.520;2022-10-16T06:19:20;14.50;98.00
4505;DHT22;2265;48.794;9.520;2022-10-16T06:21:48;14.50;98.00
4505;DHT22;2265;48.794;9.520;2022-10-16T06:24:15;14.50;98.00
4505;DHT22;2265;48.794;9.520;2022-10-16T06:26:44;14.60;98.00
4505;DHT22;2265;48.794;9.520;2022-10-16T06:29:11;14.70;98.00
4505;DHT22;2265;48.794;9.520;2022-10-16T06:31:38;14.70;98.00
4505;DHT22;2265;48.794;9.520;2022-10-16T06:34:05;14.70;98.00
4505;DHT22;2265;48.794;9.520;2022-10-16T06:36:35;14.90;98.00
4505;DHT22;2265;48.794;9.520;2022-10-16T06:39:02;14.90;98.00
4505;DHT22;2265;48.794;9.520;2022-10-16T06:41:30;14.90;98.00
4505;DHT22;2265;48.794;9.520;2022-10-16T06:43:58;15.00;98.00
4505;DHT22;2265;48.794;9.520;2022-10-16T06:46:26;15.00;98.00
4505;DHT22;2265;48.794;9.520;2022-10-16T06:48:54;15.10;98.00
4505;DHT22;2265;48.794;9.520;2022-10-16T06:51:23;15.20;98.00
4505;DHT22;2265;48.794;9.520;2022-10-16T06:53:51;15.30;98.00
4505;DHT22;2265;48.794;9.520;2022-10-16T06:56:20;15.30;98.00
4505;DHT22;2265;48.794;9.520;2022-10-16T06:58:48;15.30;98.00
4505;DHT22;2265;48.794;9.520;2022-10-16T07:01:19;15.50;98.00
4505;DHT22;2265;48.794;9.520;2022-10-16T07:03:47;15.50;98.00
4505;DHT22;2265;48.794;9.520;2022-10-16T07:06:16;15.60;98.00
4505;DHT22;2265;48.794;9.520;2022-10-16T07:08:45;15.60;98.00
4505;DHT22;2265;48.794;9.520;2022-10-16T07:11:15;15.70;98.00
4505;DHT22;2265;48.794;9.520;2022-10-16T07:13:43;15.80;98.00
4505;DHT22;2265;48.794;9.520;2022-10-16T07:16:11;15.80;98.00
4505;DHT22;2265;48.794;9.520;2022-10-16T07:18:41;15.90;98.00
4505;DHT22;2265;48.794;9.520;2022-10-16T07:21:11;15.90;98.00
4505;DHT22;2265;48.794;9.520;2022-10-16T07:23:38;15.90;98.00
4505;DHT22;2265;48.794;9.520;2022-10-16T07:26:06;15.80;98.00
4505;DHT22;2265;48.794;9.520;2022-10-16T07:28:34;15.80;98.00
4505;DHT22;2265;48.794;9.520;2022-10-16T07:31:01;15.90;98.00
4505;DHT22;2265;48.794;9.520;2022-10-16T07:33:30;16.00;98.00
4505;DHT22;2265;48.794;9.520;2022-10-16T07:35:59;16.10;98.00
4505;DHT22;2265;48.794;9.520;2022-10-16T07:38:26;16.20;98.00
4505;DHT22;2265;48.794;9.520;2022-10-16T07:40:57;16.20;98.00
4505;DHT22;2265;48.794;9.520;2022-10-16T07:43:27;16.10;98.00
4505;DHT22;2265;48.794;9.520;2022-10-16T07:45:55;16.10;98.00
4505;DHT22;2265;48.794;9.520;2022-10-16T07:48:28;16.20;98.00
4505;DHT22;2265;48.794;9.520;2022-10-16T07:50:58;16.10;98.00
4505;DHT22;2265;48.794;9.520;2022-10-16T07:53:26;16.10;98.00
4505;DHT22;2265;48.794;9.520;2022-10-16T07:55:57;16.10;98.00
4505;DHT22;2265;48.794;9.520;2022-10-16T07:58:25;16.00;98.00
4505;DHT22;2265;48.794;9.520;2022-10-16T08:00:52;16.00;98.00
4505;DHT22;2265;48.794;9.520;2022-10-16T08:03:19;16.10;98.00
4505;DHT22;2265;48.794;9.520;2022-10-16T08:05:46;16.10;98.00
4505;DHT22;2265;48.794;9.520;2022-10-16T08:08:16;16.20;98.00
4505;DHT22;2265;48.794;9.520;2022-10-16T08:10:45;16.30;98.00
4505;DHT22;2265;48.794;9.520;2022-10-16T08:13:13;16.30;98.00
4505;DHT22;2265;48.794;9.520;2022-10-16T08:15:41;16.40;98.00
4505;DHT22;2265;48.794;9.520;2022-10-16T08:18:10;16.50;98.00
4505;DHT22;2265;48.794;9.520;2022-10-16T08:20:42;16.50;98.00
4505;DHT22;2265;48.794;9.520;2022-10-16T08:23:10;16.50;98.00
4505;DHT22;2265;48.794;9.520;2022-10-16T08:25:39;16.50;98.00
4505;DHT22;2265;48.794;9.520;2022-10-16T08:28:07;16.70;98.00
4505;DHT22;2265;48.794;9.520;2022-10-16T08:30:38;16.80;98.00
4505;DHT22;2265;48.794;9.520;2022-10-16T08:33:05;16.90;98.00
4505;DHT22;2265;48.794;9.520;2022-10-16T08:35:34;16.90;98.00
4505;DHT22;2265;48.794;9.520;2022-10-16T08:38:03;16.80;98.00
4505;DHT22;2265;48.794;9.520;2022-10-16T08:40:31;16.90;98.00
4505;DHT22;2265;48.794;9.520;2022-10-16T08:43:26;17.00;98.00
4505;DHT22;2265;48.794;9.520;2022-10-16T08:46:15;17.10;98.00
4505;DHT22;2265;48.794;9.520;2022-10-16T08:48:47;17.30;98.00
4505;DHT22;2265;48.794;9.520;2022-10-16T08:51:19;17.50;98.00
4505;DHT22;2265;48.794;9.520;2022-10-16T08:53:51;17.70;98.00
4505;DHT22;2265;48.794;9.520;2022-10-16T08:56:19;17.80;98.00
4505;DHT22;2265;48.794;9.520;2022-10-16T08:58:49;17.90;98.00
4505;DHT22;2265;48.794;9.520;2022-10-16T09:01:20;17.90;98.00
4505;DHT22;2265;48.794;9.520;2022-10-16T09:06:46;17.90;98.00
4505;DHT22;2265;48.794;9.520;2022-10-16T09:09:24;17.80;98.00
4505;DHT22;2265;48.794;9.520;2022-10-16T09:12:00;17.80;98.00
4505;DHT22;2265;48.794;9.520;2022-10-16T09:14:57;17.70;98.00
4505;DHT22;2265;48.794;9.520;2022-10-16T09:17:36;17.80;98.00
4505;DHT22;2265;48.794;9.520;2022-10-16T09:20:18;17.70;98.00
4505;DHT22;2265;48.794;9.520;2022-10-16T09:22:46;17.70;98.00
4505;DHT22;2265;48.794;9.520;2022-10-16T09:25:15;17.70;98.00
4505;DHT22;2265;48.794;9.520;2022-10-16T09:27:45;17.80;98.00
4505;DHT22;2265;48.794;9.520;2022-10-16T09:30:17;17.80;98.00
4505;DHT22;2265;48.794;9.520;2022-10-16T09:32:47;17.90;98.00
4505;DHT22;2265;48.794;9.520;2022-10-16T09:35:18;18.10;98.00
4505;DHT22;2265;48.794;9.520;2022-10-16T09:37:49;18.30;98.00
4505;DHT22;2265;48.794;9.520;2022-10-16T09:40:25;18.40;98.00
4505;DHT22;2265;48.794;9.520;2022-10-16T09:42:57;18.70;98.00
4505;DHT22;2265;48.794;9.520;2022-10-16T09:45:30;18.80;98.00
4505;DHT22;2265;48.794;9.520;2022-10-16T09:47:57;18.90;98.00
4505;DHT22;2265;48.794;9.520;2022-10-16T09:50:26;19.00;98.00
4505;DHT22;2265;48.794;9.520;2022-10-16T09:53:04;19.10;98.00
4505;DHT22;2265;48.794;9.520;2022-10-16T09:55:33;19.20;98.00
4505;DHT22;2265;48.794;9.520;2022-10-16T09:58:00;19.30;98.00
4505;DHT22;2265;48.794;9.520;2022-10-16T10:00:27;19.40;98.00
4505;DHT22;2265;48.794;9.520;2022-10-16T10:02:57;19.50;98.00
4505;DHT22;2265;48.794;9.520;2022-10-16T10:05:26;19.60;98.00
4505;DHT22;2265;48.794;9.520;2022-10-16T10:07:58;19.70;98.00
4505;DHT22;2265;48.794;9.520;2022-10-16T10:10:27;19.60;98.00
4505;DHT22;2265;48.794;9.520;2022-10-16T10:12:56;19.50;98.00
4505;DHT22;2265;48.794;9.520;2022-10-16T10:15:24;19.50;98.00
4505;DHT22;2265;48.794;9.520;2022-10-16T10:17:54;19.80;98.00
4505;DHT22;2265;48.794;9.520;2022-10-16T10:20:26;19.90;98.00
4505;DHT22;2265;48.794;9.520;2022-10-16T10:22:54;20.00;98.00
4505;DHT22;2265;48.794;9.520;2022-10-16T10:25:46;20.10;98.00
4505;DHT22;2265;48.794;9.520;2022-10-16T10:28:25;20.30;98.00
4505;DHT22;2265;48.794;9.520;2022-10-16T10:31:01;20.70;98.00
4505;DHT22;2265;48.794;9.520;2022-10-16T10:33:38;20.90;98.00
4505;DHT22;2265;48.794;9.520;2022-10-16T10:36:17;20.90;98.00
4505;DHT22;2265;48.794;9.520;2022-10-16T10:38:51;20.80;98.00
4505;DHT22;2265;48.794;9.520;2022-10-16T10:41:59;20.70;98.00
4505;DHT22;2265;48.794;9.520;2022-10-16T10:47:28;21.40;98.00
4505;DHT22;2265;48.794;9.520;2022-10-16T10:50:05;21.90;98.00
4505;DHT22;2265;48.794;9.520;2022-10-16T10:52:48;22.20;98.00
4505;DHT22;2265;48.794;9.520;2022-10-16T10:55:23;22.60;98.00
4505;DHT22;2265;48.794;9.520;2022-10-16T11:00:47;23.30;98.00
4505;DHT22;2265;48.794;9.520;2022-10-16T11:06:10;23.90;98.00
4505;DHT22;2265;48.794;9.520;2022-10-16T11:08:43;24.30;98.00
4505;DHT22;2265;48.794;9.520;2022-10-16T11:11:18;24.60;98.00
4505;DHT22;2265;48.794;9.520;2022-10-16T11:13:54;25.00;98.00
4505;DHT22;2265;48.794;9.520;2022-10-16T11:16:27;25.40;98.00
4505;DHT22;2265;48.794;9.520;2022-10-16T11:18:58;25.70;98.00
4505;DHT22;2265;48.794;9.520;2022-10-16T11:21:26;26.00;98.00
4505;DHT22;2265;48.794;9.520;2022-10-16T11:24:02;26.20;98.00
4505;DHT22;2265;48.794;9.520;2022-10-16T11:26:35;26.40;98.00
4505;DHT22;2265;48.794;9.520;2022-10-16T11:29:13;26.60;98.00
4505;DHT22;2265;48.794;9.520;2022-10-16T11:31:47;26.80;98.00
4505;DHT22;2265;48.794;9.520;2022-10-16T11:34:21;27.00;98.00
4505;DHT22;2265;48.794;9.520;2022-10-16T11:36:53;27.30;98.00
4505;DHT22;2265;48.794;9.520;2022-10-16T11:39:26;27.40;96.20
4505;DHT22;2265;48.794;9.520;2022-10-16T11:41:56;27.30;95.80
4505;DHT22;2265;48.794;9.520;2022-10-16T11:44:44;27.40;98.00
4505;DHT22;2265;48.794;9.520;2022-10-16T11:47:24;27.60;96.00
4505;DHT22;2265;48.794;9.520;2022-10-16T11:49:57;27.60;94.50
4505;DHT22;2265;48.794;9.520;2022-10-16T11:52:30;27.70;97.10
4505;DHT22;2265;48.794;9.520;2022-10-16T11:55:03;27.90;95.30
4505;DHT22;2265;48.794;9.520;2022-10-16T11:57:33;28.10;97.60
4505;DHT22;2265;48.794;9.520;2022-10-16T12:00:04;28.50;97.30
4505;DHT22;2265;48.794;9.520;2022-10-16T12:02:43;28.60;93.40
4505;DHT22;2265;48.794;9.520;2022-10-16T12:05:21;28.80;92.50
4505;DHT22;2265;48.794;9.520;2022-10-16T12:07:55;28.70;91.00
4505;DHT22;2265;48.794;9.520;2022-10-16T12:10:28;28.90;91.30
4505;DHT22;2265;48.794;9.520;2022-10-16T12:12:57;28.70;90.10
4505;DHT22;2265;48.794;9.520;2022-10-16T12:15:26;28.80;91.20
4505;DHT22;2265;48.794;9.520;2022-10-16T12:17:54;29.10;90.60
4505;DHT22;2265;48.794;9.520;2022-10-16T12:20:25;29.30;87.50
4505;DHT22;2265;48.794;9.520;2022-10-16T12:22:54;29.10;91.50
4505;DHT22;2265;48.794;9.520;2022-10-16T12:25:24;29.00;91.20
4505;DHT22;2265;48.794;9.520;2022-10-16T12:28:00;29.00;91.40
4505;DHT22;2265;48.794;9.520;2022-10-16T12:30:29;29.00;91.10
4505;DHT22;2265;48.794;9.520;2022-10-16T12:32:58;29.20;88.50
4505;DHT22;2265;48.794;9.520;2022-10-16T12:35:28;29.10;90.10
4505;DHT22;2265;48.794;9.520;2022-10-16T12:38:05;29.20;88.60
4505;DHT22;2265;48.794;9.520;2022-10-16T12:40:35;29.30;89.30
4505;DHT22;2265;48.794;9.520;2022-10-16T12:43:35;29.60;89.40
4505;DHT22;2265;48.794;9.520;2022-10-16T12:46:05;29.90;86.20
4505;DHT22;2265;48.794;9.520;2022-10-16T12:48:32;29.60;85.20
4505;DHT22;2265;48.794;9.520;2022-10-16T12:51:10;28.60;88.00
4505;DHT22;2265;48.794;9.520;2022-10-16T12:53:38;28.50;90.70
4505;DHT22;2265;48.794;9.520;2022-10-16T12:56:12;28.30;88.90
4505;DHT22;2265;48.794;9.520;2022-10-16T12:58:56;28.20;95.10
4505;DHT22;2265;48.794;9.520;2022-10-16T13:01:36;28.30;98.00
4505;DHT22;2265;48.794;9.520;2022-10-16T13:04:30;28.90;97.40
4505;DHT22;2265;48.794;9.520;2022-10-16T13:07:09;29.20;91.60
4505;DHT22;2265;48.794;9.520;2022-10-16T13:09:49;28.80;92.70
4505;DHT22;2265;48.794;9.520;2022-10-16T13:15:39;27.40;98.00
4505;DHT22;2265;48.794;9.520;2022-10-16T13:18:13;26.90;98.00
4505;DHT22;2265;48.794;9.520;2022-10-16T13:20:58;26.40;98.00
4505;DHT22;2265;48.794;9.520;2022-10-16T13:23:31;26.00;98.00
4505;DHT22;2265;48.794;9.520;2022-10-16T13:26:10;25.80;98.00
4505;DHT22;2265;48.794;9.520;2022-10-16T13:28:38;25.60;98.00
4505;DHT22;2265;48.794;9.520;2022-10-16T13:31:14;25.50;98.00
4505;DHT22;2265;48.794;9.520;2022-10-16T13:33:46;25.60;98.00
4505;DHT22;2265;48.794;9.520;2022-10-16T13:36:19;25.50;98.00
4505;DHT22;2265;48.794;9.520;2022-10-16T13:38:47;25.50;98.00
4505;DHT22;2265;48.794;9.520;2022-10-16T13:41:16;25.80;98.00
4505;DHT22;2265;48.794;9.520;2022-10-16T13:43:45;26.00;98.00
4505;DHT22;2265;48.794;9.520;2022-10-16T13:46:16;26.30;98.00
4505;DHT22;2265;48.794;9.520;2022-10-16T13:48:44;26.80;98.00
4505;DHT22;2265;48.794;9.520;2022-10-16T13:51:13;27.10;98.00
4505;DHT22;2265;48.794;9.520;2022-10-16T13:53:41;27.60;98.00
4505;DHT22;2265;48.794;9.520;2022-10-16T13:56:11;27.90;98.00
4505;DHT22;2265;48.794;9.520;2022-10-16T13:58:39;27.80;98.00
4505;DHT22;2265;48.794;9.520;2022-10-16T14:01:19;27.50;98.00
4505;DHT22;2265;48.794;9.520;2022-10-16T14:03:48;27.10;98.00
4505;DHT22;2265;48.794;9.520;2022-10-16T14:06:19;26.80;98.00
4505;DHT22;2265;48.794;9.520;2022-10-16T14:08:57;26.60;98.00
4505;DHT22;2265;48.794;9.520;2022-10-16T14:11:25;26.70;98.00
4505;DHT22;2265;48.794;9.520;2022-10-16T14:13:53;26.90;98.00
4505;DHT22;2265;48.794;9.520;2022-10-16T14:16:23;27.10;98.00
4505;DHT22;2265;48.794;9.520;2022-10-16T14:18:56;27.30;98.00
4505;DHT22;2265;48.794;9.520;2022-10-16T14:21:24;27.40;98.00
4505;DHT22;2265;48.794;9.520;2022-10-16T14:23:52;27.60;98.00
4505;DHT22;2265;48.794;9.520;2022-10-16T14:26:22;27.30;98.00
4505;DHT22;2265;48.794;9.520;2022-10-16T14:29:02;27.10;98.00
4505;DHT22;2265;48.794;9.520;2022-10-16T14:31:33;26.60;98.00
4505;DHT22;2265;48.794;9.520;2022-10-16T14:34:02;26.00;98.00
4505;DHT22;2265;48.794;9.520;2022-10-16T14:36:30;25.60;98.00
4505;DHT22;2265;48.794;9.520;2022-10-16T14:39:01;25.30;98.00
4505;DHT22;2265;48.794;9.520;2022-10-16T14:41:30;25.10;98.00
4505;DHT22;2265;48.794;9.520;2022-10-16T14:44:01;24.90;98.00
4505;DHT22;2265;48.794;9.520;2022-10-16T14:46:34;24.60;98.00
4505;DHT22;2265;48.794;9.520;2022-10-16T14:49:15;24.40;98.00
4505;DHT22;2265;48.794;9.520;2022-10-16T14:51:43;24.40;98.00
4505;DHT22;2265;48.794;9.520;2022-10-16T14:54:12;24.30;98.00
4505;DHT22;2265;48.794;9.520;2022-10-16T14:56:46;24.10;98.00
4505;DHT22;2265;48.794;9.520;2022-10-16T14:59:16;23.80;98.00
4505;DHT22;2265;48.794;9.520;2022-10-16T15:01:46;23.60;98.00
4505;DHT22;2265;48.794;9.520;2022-10-16T15:04:13;23.60;98.00
4505;DHT22;2265;48.794;9.520;2022-10-16T15:06:41;23.60;98.00
4505;DHT22;2265;48.794;9.520;2022-10-16T15:09:09;23.70;98.00
4505;DHT22;2265;48.794;9.520;2022-10-16T15:11:36;23.90;98.00
4505;DHT22;2265;48.794;9.520;2022-10-16T15:14:04;24.30;98.00
4505;DHT22;2265;48.794;9.520;2022-10-16T15:16:31;25.00;98.00
4505;DHT22;2265;48.794;9.520;2022-10-16T15:18:59;25.40;98.00
4505;DHT22;2265;48.794;9.520;2022-10-16T15:21:28;25.80;98.00
4505;DHT22;2265;48.794;9.520;2022-10-16T15:23:56;26.00;98.00
4505;DHT22;2265;48.794;9.520;2022-10-16T15:26:24;25.80;98.00
4505;DHT22;2265;48.794;9.520;2022-10-16T15:28:51;25.40;98.00
4505;DHT22;2265;48.794;9.520;2022-10-16T15:31:18;25.30;98.00
4505;DHT22;2265;48.794;9.520;2022-10-16T15:33:49;25.30;98.00
4505;DHT22;2265;48.794;9.520;2022-10-16T15:36:26;25.30;98.00
4505;DHT22;2265;48.794;9.520;2022-10-16T15:38:53;25.60;98.00
4505;DHT22;2265;48.794;9.520;2022-10-16T15:41:21;25.80;98.00
4505;DHT22;2265;48.794;9.520;2022-10-16T15:43:49;25.70;98.00
4505;DHT22;2265;48.794;9.520;2022-10-16T15:46:18;25.90;98.00
4505;DHT22;2265;48.794;9.520;2022-10-16T15:48:46;25.30;98.00
4505;DHT22;2265;48.794;9.520;2022-10-16T15:51:14;25.00;98.00
4505;DHT22;2265;48.794;9.520;2022-10-16T15:53:42;24.60;98.00
4505;DHT22;2265;48.794;9.520;2022-10-16T15:56:12;24.20;98.00
4505;DHT22;2265;48.794;9.520;2022-10-16T15:58:39;23.60;98.00
4505;DHT22;2265;48.794;9.520;2022-10-16T16:01:07;23.10;98.00
4505;DHT22;2265;48.794;9.520;2022-10-16T16:03:37;22.90;98.00
4505;DHT22;2265;48.794;9.520;2022-10-16T16:06:11;22.50;98.00
4505;DHT22;2265;48.794;9.520;2022-10-16T16:08:39;22.30;98.00
4505;DHT22;2265;48.794;9.520;2022-10-16T16:11:09;22.10;98.00
4505;DHT22;2265;48.794;9.520;2022-10-16T16:13:36;22.00;98.00
4505;DHT22;2265;48.794;9.520;2022-10-16T16:16:06;21.80;98.00
4505;DHT22;2265;48.794;9.520;2022-10-16T16:18:34;21.60;98.00
4505;DHT22;2265;48.794;9.520;2022-10-16T16:21:01;21.40;98.00
4505;DHT22;2265;48.794;9.520;2022-10-16T16:23:28;21.30;98.00
4505;DHT22;2265;48.794;9.520;2022-10-16T16:26:04;21.20;98.00
4505;DHT22;2265;48.794;9.520;2022-10-16T16:28:33;21.20;98.00
4505;DHT22;2265;48.794;9.520;2022-10-16T16:31:01;21.00;98.00
4505;DHT22;2265;48.794;9.520;2022-10-16T16:33:28;21.00;98.00
4505;DHT22;2265;48.794;9.520;2022-10-16T16:35:58;20.70;98.00
4505;DHT22;2265;48.794;9.520;2022-10-16T16:38:26;20.60;98.00